sensor_id;sensor_type;location;lat;lon;timestamp;temperature;humidity
54409;DHT22;40315;48.620;9.828;2023-10-08T00:00:43;11.00;99.90
54409;DHT22;40315;48.620;9.828;2023-10-08T00:03:13;11.10;99.90
54409;DHT22;40315;48.620;9.828;2023-10-08T00:05:43;11.10;99.90
54409;DHT22;40315;48.620;9.828;2023-10-08T00:13:11;11.20;99.90
54409;DHT22;40315;48.620;9.828;2023-10-08T00:15:39;11.10;99.90
54409;DHT22;40315;48.620;9.828;2023-10-08T00:18:07;11.00;99.90
54409;DHT22;40315;48.620;9.828;2023-10-08T00:20:37;11.00;99.90
54409;DHT22;40315;48.620;9.828;2023-10-08T00:25:51;10.50;99.90
54409;DHT22;40315;48.620;9.828;2023-10-08T00:30:46;11.00;99.90
54409;DHT22;40315;48.620;9.828;2023-10-08T00:33:14;12.40;99.90
54409;DHT22;40315;48.620;9.828;2023-10-08T00:35:42;11.10;99.90
54409;DHT22;40315;48.620;9.828;2023-10-08T00:38:09;11.20;99.90
54409;DHT22;40315;48.620;9.828;2023-10-08T00:43:29;11.30;99.90
54409;DHT22;40315;48.620;9.828;2023-10-08T00:45:58;11.30;99.90
54409;DHT22;40315;48.620;9.828;2023-10-08T00:48:26;11.20;99.90
54409;DHT22;40315;48.620;9.828;2023-10-08T00:50:56;11.20;99.90
54409;DHT22;40315;48.620;9.828;2023-10-08T00:53:35;11.10;99.90
54409;DHT22;40315;48.620;9.828;2023-10-08T00:58:41;11.20;99.90
54409;DHT22;40315;48.620;9.828;2023-10-08T01:06:28;11.10;99.90
54409;DHT22;40315;48.620;9.828;2023-10-08T01:12:07;11.10;99.90
54409;DHT22;40315;48.620;9.828;2023-10-08T01:14:36;11.10;99.90
54409;DHT22;40315;48.620;9.828;2023-10-08T01:17:06;11.10;99.90
54409;DHT22;40315;48.620;9.828;2023-10-08T01:19:33;11.10;99.90
54409;DHT22;40315;48.620;9.828;2023-10-08T01:22:11;11.10;99.90
54409;DHT22;40315;48.620;9.828;2023-10-08T01:24:44;11.20;99.90
54409;DHT22;40315;48.620;9.828;2023-10-08T01:29:49;11.20;99.90
54409;DHT22;40315;48.620;9.828;2023-10-08T01:32:17;11.20;99.90
54409;DHT22;40315;48.620;9.828;2023-10-08T01:34:45;11.20;99.90
54409;DHT22;40315;48.620;9.828;2023-10-08T01:37:15;11.30;99.90
54409;DHT22;40315;48.620;9.828;2023-10-08T01:47:17;11.30;99.90
54409;DHT22;40315;48.620;9.828;2023-10-08T02:13:44;11.40;99.90
54409;DHT22;40315;48.620;9.828;2023-10-08T02:16:17;11.40;99.90
54409;DHT22;40315;48.620;9.828;2023-10-08T02:18:47;11.30;99.90
54409;DHT22;40315;48.620;9.828;2023-10-08T02:21:15;11.30;99.90
54409;DHT22;40315;48.620;9.828;2023-10-08T02:23:42;11.30;99.90
54409;DHT22;40315;48.620;9.828;2023-10-08T02:26:10;11.30;99.90
54409;DHT22;40315;48.620;9.828;2023-10-08T02:31:06;11.30;99.90
54409;DHT22;40315;48.620;9.828;2023-10-08T02:33:34;11.30;99.90
54409;DHT22;40315;48.620;9.828;2023-10-08T02:36:04;11.30;99.90
54409;DHT22;40315;48.620;9.828;2023-10-08T02:38:33;11.10;99.90
54409;DHT22;40315;48.620;9.828;2023-10-08T02:41:04;11.20;99.90
54409;DHT22;40315;48.620;9.828;2023-10-08T02:43:33;11.10;99.90
54409;DHT22;40315;48.620;9.828;2023-10-08T02:46:07;11.10;99.90
54409;DHT22;40315;48.620;9.828;2023-10-08T02:48:40;11.00;99.90
54409;DHT22;40315;48.620;9.828;2023-10-08T02:51:06;11.00;99.90
54409;DHT22;40315;48.620;9.828;2023-10-08T02:53:40;11.00;99.90
54409;DHT22;40315;48.620;9.828;2023-10-08T02:56:09;11.00;99.90
54409;DHT22;40315;48.620;9.828;2023-10-08T02:58:39;11.10;99.90
54409;DHT22;40315;48.620;9.828;2023-10-08T03:01:12;11.10;99.90
54409;DHT22;40315;48.620;9.828;2023-10-08T03:03:41;11.00;99.90
54409;DHT22;40315;48.620;9.828;2023-10-08T03:06:09;10.90;99.90
54409;DHT22;40315;48.620;9.828;2023-10-08T03:08:40;10.90;99.90
54409;DHT22;40315;48.620;9.828;2023-10-08T03:11:10;10.80;99.90
54409;DHT22;40315;48.620;9.828;2023-10-08T03:13:44;10.60;99.90
54409;DHT22;40315;48.620;9.828;2023-10-08T03:16:15;10.70;99.90
54409;DHT22;40315;48.620;9.828;2023-10-08T03:18:47;10.60;99.90
54409;DHT22;40315;48.620;9.828;2023-10-08T03:21:19;10.70;99.90
54409;DHT22;40315;48.620;9.828;2023-10-08T03:24:11;10.60;99.90
54409;DHT22;40315;48.620;9.828;2023-10-08T03:26:59;10.60;99.90
54409;DHT22;40315;48.620;9.828;2023-10-08T03:32:11;10.70;99.90
54409;DHT22;40315;48.620;9.828;2023-10-08T03:34:44;10.70;99.90
54409;DHT22;40315;48.620;9.828;2023-10-08T03:37:14;10.70;99.90
54409;DHT22;40315;48.620;9.828;2023-10-08T03:39:49;10.60;99.90
54409;DHT22;40315;48.620;9.828;2023-10-08T03:42:27;10.60;99.90
54409;DHT22;40315;48.620;9.828;2023-10-08T03:45:00;10.70;99.90
54409;DHT22;40315;48.620;9.828;2023-10-08T03:47:38;10.70;99.90
54409;DHT22;40315;48.620;9.828;2023-10-08T03:50:12;10.70;99.90
54409;DHT22;40315;48.620;9.828;2023-10-08T03:52:43;10.70;99.90
54409;DHT22;40315;48.620;9.828;2023-10-08T03:55:10;10.60;99.90
54409;DHT22;40315;48.620;9.828;2023-10-08T03:57:47;10.50;99.90
54409;DHT22;40315;48.620;9.828;2023-10-08T04:00:23;10.40;99.90
54409;DHT22;40315;48.620;9.828;2023-10-08T04:03:02;10.30;99.90
54409;DHT22;40315;48.620;9.828;2023-10-08T04:05:34;10.30;99.90
54409;DHT22;40315;48.620;9.828;2023-10-08T04:08:15;10.30;99.90
54409;DHT22;40315;48.620;9.828;2023-10-08T04:10:52;10.20;99.90
54409;DHT22;40315;48.620;9.828;2023-10-08T04:13:42;10.20;99.90
54409;DHT22;40315;48.620;9.828;2023-10-08T04:18:46;10.40;99.90
54409;DHT22;40315;48.620;9.828;2023-10-08T04:21:17;10.30;99.90
54409;DHT22;40315;48.620;9.828;2023-10-08T04:23:46;10.20;99.90
54409;DHT22;40315;48.620;9.828;2023-10-08T04:26:18;10.20;99.90
54409;DHT22;40315;48.620;9.828;2023-10-08T04:28:50;10.20;99.90
54409;DHT22;40315;48.620;9.828;2023-10-08T04:31:21;10.20;99.90
54409;DHT22;40315;48.620;9.828;2023-10-08T04:33:52;10.20;99.90
54409;DHT22;40315;48.620;9.828;2023-10-08T04:36:19;10.20;99.90
54409;DHT22;40315;48.620;9.828;2023-10-08T04:38:48;10.20;99.90
54409;DHT22;40315;48.620;9.828;2023-10-08T04:41:20;9.50;99.90
54409;DHT22;40315;48.620;9.828;2023-10-08T04:43:56;10.10;99.90
54409;DHT22;40315;48.620;9.828;2023-10-08T04:46:23;10.10;99.90
54409;DHT22;40315;48.620;9.828;2023-10-08T04:49:16;10.10;99.90
54409;DHT22;40315;48.620;9.828;2023-10-08T04:54:24;10.20;99.90
54409;DHT22;40315;48.620;9.828;2023-10-08T04:56:56;10.10;99.90
54409;DHT22;40315;48.620;9.828;2023-10-08T04:59:25;10.10;99.90
54409;DHT22;40315;48.620;9.828;2023-10-08T05:04:46;10.10;99.90
54409;DHT22;40315;48.620;9.828;2023-10-08T05:07:22;10.10;99.90
54409;DHT22;40315;48.620;9.828;2023-10-08T05:10:04;10.20;99.90
54409;DHT22;40315;48.620;9.828;2023-10-08T05:12:57;10.30;99.90
54409;DHT22;40315;48.620;9.828;2023-10-08T05:15:27;10.30;99.90
54409;DHT22;40315;48.620;9.828;2023-10-08T05:18:04;10.40;99.90
54409;DHT22;40315;48.620;9.828;2023-10-08T05:20:40;10.30;99.90
54409;DHT22;40315;48.620;9.828;2023-10-08T05:26:10;10.40;99.90
54409;DHT22;40315;48.620;9.828;2023-10-08T05:28:46;10.50;99.90
54409;DHT22;40315;48.620;9.828;2023-10-08T05:31:26;10.50;99.90
54409;DHT22;40315;48.620;9.828;2023-10-08T05:34:13;10.40;99.90
54409;DHT22;40315;48.620;9.828;2023-10-08T05:36:49;10.30;99.90
54409;DHT22;40315;48.620;9.828;2023-10-08T05:39:37;10.20;99.90
54409;DHT22;40315;48.620;9.828;2023-10-08T05:42:08;10.20;99.90
54409;DHT22;40315;48.620;9.828;2023-10-08T05:44:44;10.30;99.90
54409;DHT22;40315;48.620;9.828;2023-10-08T05:47:13;10.20;99.90
54409;DHT22;40315;48.620;9.828;2023-10-08T05:50:05;10.40;99.90
54409;DHT22;40315;48.620;9.828;2023-10-08T05:52:50;10.40;99.90
54409;DHT22;40315;48.620;9.828;2023-10-08T05:55:31;10.40;99.90
54409;DHT22;40315;48.620;9.828;2023-10-08T05:58:02;10.50;99.90
54409;DHT22;40315;48.620;9.828;2023-10-08T06:00:47;10.60;99.90
54409;DHT22;40315;48.620;9.828;2023-10-08T06:03:28;10.50;99.90
54409;DHT22;40315;48.620;9.828;2023-10-08T06:06:18;10.40;99.90
54409;DHT22;40315;48.620;9.828;2023-10-08T06:09:07;10.40;99.90
54409;DHT22;40315;48.620;9.828;2023-10-08T06:12:00;10.50;99.90
54409;DHT22;40315;48.620;9.828;2023-10-08T06:14:35;10.50;99.90
54409;DHT22;40315;48.620;9.828;2023-10-08T06:17:20;10.60;99.90
54409;DHT22;40315;48.620;9.828;2023-10-08T06:20:05;10.50;99.90
54409;DHT22;40315;48.620;9.828;2023-10-08T06:22:36;10.50;99.90
54409;DHT22;40315;48.620;9.828;2023-10-08T06:25:08;10.50;99.90
54409;DHT22;40315;48.620;9.828;2023-10-08T06:27:50;10.60;99.90
54409;DHT22;40315;48.620;9.828;2023-10-08T06:30:21;10.50;99.90
54409;DHT22;40315;48.620;9.828;2023-10-08T06:32:50;10.60;99.90
54409;DHT22;40315;48.620;9.828;2023-10-08T06:35:19;10.60;99.90
54409;DHT22;40315;48.620;9.828;2023-10-08T06:37:54;10.70;99.90
54409;DHT22;40315;48.620;9.828;2023-10-08T06:40:28;10.80;99.90
54409;DHT22;40315;48.620;9.828;2023-10-08T06:43:08;10.90;99.90
54409;DHT22;40315;48.620;9.828;2023-10-08T06:45:44;10.90;99.90
54409;DHT22;40315;48.620;9.828;2023-10-08T06:50:47;11.10;99.90
54409;DHT22;40315;48.620;9.828;2023-10-08T06:53:14;11.10;99.90
54409;DHT22;40315;48.620;9.828;2023-10-08T06:55:45;11.20;99.90
54409;DHT22;40315;48.620;9.828;2023-10-08T06:58:14;11.30;99.90
54409;DHT22;40315;48.620;9.828;2023-10-08T07:00:43;11.40;99.90
54409;DHT22;40315;48.620;9.828;2023-10-08T07:03:15;11.40;99.90
54409;DHT22;40315;48.620;9.828;2023-10-08T07:05:47;11.50;99.90
54409;DHT22;40315;48.620;9.828;2023-10-08T07:08:24;11.60;99.90
54409;DHT22;40315;48.620;9.828;2023-10-08T07:13:22;11.70;99.90
54409;DHT22;40315;48.620;9.828;2023-10-08T07:15:50;11.70;99.90
54409;DHT22;40315;48.620;9.828;2023-10-08T07:18:18;11.90;99.90
54409;DHT22;40315;48.620;9.828;2023-10-08T07:25:56;12.40;99.90
54409;DHT22;40315;48.620;9.828;2023-10-08T07:28:28;12.50;99.90
54409;DHT22;40315;48.620;9.828;2023-10-08T07:30:56;12.50;99.90
54409;DHT22;40315;48.620;9.828;2023-10-08T07:33:23;12.70;99.90
54409;DHT22;40315;48.620;9.828;2023-10-08T07:36:02;12.90;99.90
54409;DHT22;40315;48.620;9.828;2023-10-08T07:38:38;13.00;99.90
54409;DHT22;40315;48.620;9.828;2023-10-08T07:41:07;13.10;99.90
54409;DHT22;40315;48.620;9.828;2023-10-08T07:43:36;13.10;99.90
54409;DHT22;40315;48.620;9.828;2023-10-08T07:46:03;13.20;99.90
54409;DHT22;40315;48.620;9.828;2023-10-08T07:48:31;13.40;99.90
54409;DHT22;40315;48.620;9.828;2023-10-08T07:50:58;13.50;99.90
54409;DHT22;40315;48.620;9.828;2023-10-08T07:53:25;13.40;99.90
54409;DHT22;40315;48.620;9.828;2023-10-08T07:56:04;13.40;99.90
54409;DHT22;40315;48.620;9.828;2023-10-08T07:58:34;13.40;99.90
54409;DHT22;40315;48.620;9.828;2023-10-08T08:01:03;13.50;99.90
54409;DHT22;40315;48.620;9.828;2023-10-08T08:03:32;13.60;99.90
54409;DHT22;40315;48.620;9.828;2023-10-08T08:06:03;13.70;99.90
54409;DHT22;40315;48.620;9.828;2023-10-08T08:18:45;14.60;99.90
54409;DHT22;40315;48.620;9.828;2023-10-08T08:21:13;14.80;99.90
54409;DHT22;40315;48.620;9.828;2023-10-08T08:23:45;14.90;99.90
54409;DHT22;40315;48.620;9.828;2023-10-08T08:26:14;15.00;99.90
54409;DHT22;40315;48.620;9.828;2023-10-08T08:33:55;15.50;99.90
54409;DHT22;40315;48.620;9.828;2023-10-08T08:36:26;15.60;99.90
54409;DHT22;40315;48.620;9.828;2023-10-08T08:38:54;15.50;99.90
54409;DHT22;40315;48.620;9.828;2023-10-08T08:41:22;15.70;99.90
54409;DHT22;40315;48.620;9.828;2023-10-08T08:43:51;16.10;99.90
54409;DHT22;40315;48.620;9.828;2023-10-08T08:46:30;16.20;99.90
54409;DHT22;40315;48.620;9.828;2023-10-08T08:49:01;16.10;99.90
54409;DHT22;40315;48.620;9.828;2023-10-08T08:51:30;16.40;99.90
54409;DHT22;40315;48.620;9.828;2023-10-08T08:53:57;16.70;99.90
54409;DHT22;40315;48.620;9.828;2023-10-08T08:56:26;16.70;99.90
54409;DHT22;40315;48.620;9.828;2023-10-08T08:58:55;16.50;99.90
54409;DHT22;40315;48.620;9.828;2023-10-08T09:01:24;16.50;99.90
54409;DHT22;40315;48.620;9.828;2023-10-08T09:08:54;17.00;99.90
54409;DHT22;40315;48.620;9.828;2023-10-08T09:11:39;17.00;99.90
54409;DHT22;40315;48.620;9.828;2023-10-08T09:14:08;17.00;99.90
54409;DHT22;40315;48.620;9.828;2023-10-08T09:16:36;17.10;99.90
54409;DHT22;40315;48.620;9.828;2023-10-08T09:21:37;17.00;99.90
54409;DHT22;40315;48.620;9.828;2023-10-08T09:24:08;17.20;99.90
54409;DHT22;40315;48.620;9.828;2023-10-08T09:26:37;17.20;99.90
54409;DHT22;40315;48.620;9.828;2023-10-08T09:29:05;17.10;99.90
54409;DHT22;40315;48.620;9.828;2023-10-08T09:34:08;17.10;99.90
54409;DHT22;40315;48.620;9.828;2023-10-08T09:36:38;17.00;99.90
54409;DHT22;40315;48.620;9.828;2023-10-08T09:39:08;16.90;99.90
54409;DHT22;40315;48.620;9.828;2023-10-08T09:41:47;17.00;99.90
54409;DHT22;40315;48.620;9.828;2023-10-08T09:46:42;17.20;99.90
54409;DHT22;40315;48.620;9.828;2023-10-08T09:51:45;17.50;99.90
54409;DHT22;40315;48.620;9.828;2023-10-08T09:54:19;17.60;99.90
54409;DHT22;40315;48.620;9.828;2023-10-08T09:56:49;17.80;99.90
54409;DHT22;40315;48.620;9.828;2023-10-08T09:59:18;17.90;99.90
54409;DHT22;40315;48.620;9.828;2023-10-08T10:01:46;18.00;99.90
54409;DHT22;40315;48.620;9.828;2023-10-08T10:04:24;18.10;99.90
54409;DHT22;40315;48.620;9.828;2023-10-08T10:06:51;18.10;99.90
54409;DHT22;40315;48.620;9.828;2023-10-08T10:09:23;18.20;99.90
54409;DHT22;40315;48.620;9.828;2023-10-08T10:11:51;18.30;99.90
54409;DHT22;40315;48.620;9.828;2023-10-08T10:14:22;18.50;99.90
54409;DHT22;40315;48.620;9.828;2023-10-08T10:17:08;18.70;99.90
54409;DHT22;40315;48.620;9.828;2023-10-08T10:22:12;19.20;99.90
54409;DHT22;40315;48.620;9.828;2023-10-08T10:24:41;19.00;99.90
54409;DHT22;40315;48.620;9.828;2023-10-08T10:27:15;19.00;99.90
54409;DHT22;40315;48.620;9.828;2023-10-08T10:29:44;19.10;99.90
54409;DHT22;40315;48.620;9.828;2023-10-08T10:32:14;19.20;99.90
54409;DHT22;40315;48.620;9.828;2023-10-08T10:34:43;19.50;99.90
54409;DHT22;40315;48.620;9.828;2023-10-08T10:37:13;19.60;99.90
54409;DHT22;40315;48.620;9.828;2023-10-08T10:39:53;19.70;99.90
54409;DHT22;40315;48.620;9.828;2023-10-08T10:42:29;19.60;99.90
54409;DHT22;40315;48.620;9.828;2023-10-08T10:44:58;19.70;99.90
54409;DHT22;40315;48.620;9.828;2023-10-08T10:47:34;19.80;99.90
54409;DHT22;40315;48.620;9.828;2023-10-08T10:50:12;19.70;99.90
54409;DHT22;40315;48.620;9.828;2023-10-08T10:53:00;19.70;99.90
54409;DHT22;40315;48.620;9.828;2023-10-08T10:55:36;19.80;99.90
54409;DHT22;40315;48.620;9.828;2023-10-08T10:58:03;19.80;99.90
54409;DHT22;40315;48.620;9.828;2023-10-08T11:00:37;20.10;99.90
54409;DHT22;40315;48.620;9.828;2023-10-08T11:05:44;20.20;99.90
54409;DHT22;40315;48.620;9.828;2023-10-08T11:08:15;20.20;99.90
54409;DHT22;40315;48.620;9.828;2023-10-08T11:13:16;20.20;99.90
54409;DHT22;40315;48.620;9.828;2023-10-08T11:18:16;20.30;99.90
54409;DHT22;40315;48.620;9.828;2023-10-08T11:20:49;20.40;99.90
54409;DHT22;40315;48.620;9.828;2023-10-08T11:23:34;20.40;99.90
54409;DHT22;40315;48.620;9.828;2023-10-08T11:26:03;20.50;99.90
54409;DHT22;40315;48.620;9.828;2023-10-08T11:28:32;20.50;99.90
54409;DHT22;40315;48.620;9.828;2023-10-08T11:31:04;20.60;99.90
54409;DHT22;40315;48.620;9.828;2023-10-08T11:33:36;20.50;99.90
54409;DHT22;40315;48.620;9.828;2023-10-08T11:36:07;20.60;99.90
54409;DHT22;40315;48.620;9.828;2023-10-08T11:38:44;20.60;99.90
54409;DHT22;40315;48.620;9.828;2023-10-08T11:43:51;20.70;99.90
54409;DHT22;40315;48.620;9.828;2023-10-08T11:46:23;20.80;99.90
54409;DHT22;40315;48.620;9.828;2023-10-08T11:48:53;20.70;99.90
54409;DHT22;40315;48.620;9.828;2023-10-08T11:53:53;20.70;99.90
54409;DHT22;40315;48.620;9.828;2023-10-08T11:56:22;20.70;99.90
54409;DHT22;40315;48.620;9.828;2023-10-08T11:58:49;20.70;99.90
54409;DHT22;40315;48.620;9.828;2023-10-08T12:01:17;20.80;99.90
54409;DHT22;40315;48.620;9.828;2023-10-08T12:03:49;20.80;99.90
54409;DHT22;40315;48.620;9.828;2023-10-08T12:06:17;20.80;99.90
54409;DHT22;40315;48.620;9.828;2023-10-08T12:11:19;20.90;99.90
54409;DHT22;40315;48.620;9.828;2023-10-08T12:13:48;20.90;99.90
54409;DHT22;40315;48.620;9.828;2023-10-08T12:16:16;20.90;99.90
54409;DHT22;40315;48.620;9.828;2023-10-08T12:18:51;21.50;99.90
54409;DHT22;40315;48.620;9.828;2023-10-08T12:21:27;21.10;99.90
54409;DHT22;40315;48.620;9.828;2023-10-08T12:26:24;21.40;99.90
54409;DHT22;40315;48.620;9.828;2023-10-08T12:28:51;21.60;99.90
54409;DHT22;40315;48.620;9.828;2023-10-08T12:31:20;21.90;99.90
54409;DHT22;40315;48.620;9.828;2023-10-08T12:33:51;22.30;99.90
54409;DHT22;40315;48.620;9.828;2023-10-08T12:36:19;22.30;99.90
54409;DHT22;40315;48.620;9.828;2023-10-08T12:38:49;22.60;99.90
54409;DHT22;40315;48.620;9.828;2023-10-08T12:41:24;22.60;99.90
54409;DHT22;40315;48.620;9.828;2023-10-08T12:43:53;22.60;99.90
54409;DHT22;40315;48.620;9.828;2023-10-08T12:46:21;22.80;99.90
54409;DHT22;40315;48.620;9.828;2023-10-08T12:48:51;22.70;99.50
54409;DHT22;40315;48.620;9.828;2023-10-08T12:53:58;22.90;99.60
54409;DHT22;40315;48.620;9.828;2023-10-08T12:59:01;23.50;99.20
54409;DHT22;40315;48.620;9.828;2023-10-08T13:04:05;23.70;98.10
54409;DHT22;40315;48.620;9.828;2023-10-08T13:06:41;23.60;97.50
54409;DHT22;40315;48.620;9.828;2023-10-08T13:09:11;23.50;97.50
54409;DHT22;40315;48.620;9.828;2023-10-08T13:11:40;23.50;97.60
54409;DHT22;40315;48.620;9.828;2023-10-08T13:14:08;23.70;97.60
54409;DHT22;40315;48.620;9.828;2023-10-08T13:16:37;23.80;97.40
54409;DHT22;40315;48.620;9.828;2023-10-08T13:19:09;23.90;97.00
54409;DHT22;40315;48.620;9.828;2023-10-08T13:21:36;23.80;96.60
54409;DHT22;40315;48.620;9.828;2023-10-08T13:24:04;23.60;96.90
54409;DHT22;40315;48.620;9.828;2023-10-08T13:26:35;23.60;97.00
54409;DHT22;40315;48.620;9.828;2023-10-08T13:29:05;23.50;96.90
54409;DHT22;40315;48.620;9.828;2023-10-08T13:31:37;23.60;96.70
54409;DHT22;40315;48.620;9.828;2023-10-08T13:34:04;23.80;96.90
54409;DHT22;40315;48.620;9.828;2023-10-08T13:36:34;23.70;96.20
54409;DHT22;40315;48.620;9.828;2023-10-08T13:39:04;23.50;96.70
54409;DHT22;40315;48.620;9.828;2023-10-08T13:41:35;23.30;97.00
54409;DHT22;40315;48.620;9.828;2023-10-08T13:44:05;23.10;97.00
54409;DHT22;40315;48.620;9.828;2023-10-08T13:46:32;22.90;97.20
54409;DHT22;40315;48.620;9.828;2023-10-08T13:49:04;22.80;97.30
54409;DHT22;40315;48.620;9.828;2023-10-08T13:51:34;22.70;97.90
54409;DHT22;40315;48.620;9.828;2023-10-08T13:54:02;22.60;97.90
54409;DHT22;40315;48.620;9.828;2023-10-08T13:56:32;22.50;98.10
54409;DHT22;40315;48.620;9.828;2023-10-08T14:01:40;22.50;98.50
54409;DHT22;40315;48.620;9.828;2023-10-08T14:04:09;22.60;98.60
54409;DHT22;40315;48.620;9.828;2023-10-08T14:06:37;22.70;98.60
54409;DHT22;40315;48.620;9.828;2023-10-08T14:09:08;22.80;98.50
54409;DHT22;40315;48.620;9.828;2023-10-08T14:11:38;22.90;98.50
54409;DHT22;40315;48.620;9.828;2023-10-08T14:14:05;22.90;98.40
54409;DHT22;40315;48.620;9.828;2023-10-08T14:16:38;23.00;98.10
54409;DHT22;40315;48.620;9.828;2023-10-08T14:19:07;23.10;98.40
54409;DHT22;40315;48.620;9.828;2023-10-08T14:21:38;23.00;97.90
54409;DHT22;40315;48.620;9.828;2023-10-08T14:24:15;23.10;98.10
54409;DHT22;40315;48.620;9.828;2023-10-08T14:26:42;23.10;98.10
54409;DHT22;40315;48.620;9.828;2023-10-08T14:29:09;23.20;98.00
54409;DHT22;40315;48.620;9.828;2023-10-08T14:34:19;23.20;97.30
54409;DHT22;40315;48.620;9.828;2023-10-08T14:36:57;23.10;97.40
54409;DHT22;40315;48.620;9.828;2023-10-08T14:39:42;23.00;97.20
54409;DHT22;40315;48.620;9.828;2023-10-08T14:42:32;23.00;97.20
54409;DHT22;40315;48.620;9.828;2023-10-08T14:45:16;23.00;97.80
54409;DHT22;40315;48.620;9.828;2023-10-08T14:47:46;23.10;97.80
54409;DHT22;40315;48.620;9.828;2023-10-08T14:50:13;23.10;97.80
54409;DHT22;40315;48.620;9.828;2023-10-08T14:52:43;23.00;97.80
54409;DHT22;40315;48.620;9.828;2023-10-08T14:55:10;23.10;98.20
54409;DHT22;40315;48.620;9.828;2023-10-08T14:57:40;23.30;98.20
54409;DHT22;40315;48.620;9.828;2023-10-08T15:00:08;23.40;98.50
54409;DHT22;40315;48.620;9.828;2023-10-08T15:02:36;23.30;98.20
54409;DHT22;40315;48.620;9.828;2023-10-08T15:05:07;23.40;99.00
54409;DHT22;40315;48.620;9.828;2023-10-08T15:07:36;23.20;99.40
54409;DHT22;40315;48.620;9.828;2023-10-08T15:10:05;23.30;99.40
54409;DHT22;40315;48.620;9.828;2023-10-08T15:12:36;23.30;99.40
54409;DHT22;40315;48.620;9.828;2023-10-08T15:15:04;23.30;99.40
54409;DHT22;40315;48.620;9.828;2023-10-08T15:17:39;23.50;99.90
54409;DHT22;40315;48.620;9.828;2023-10-08T15:20:09;23.30;99.30
54409;DHT22;40315;48.620;9.828;2023-10-08T15:22:40;23.20;99.90
54409;DHT22;40315;48.620;9.828;2023-10-08T15:25:09;23.30;99.90
54409;DHT22;40315;48.620;9.828;2023-10-08T15:27:37;23.30;99.90
54409;DHT22;40315;48.620;9.828;2023-10-08T15:30:07;23.50;99.90
54409;DHT22;40315;48.620;9.828;2023-10-08T15:32:37;23.20;99.40
54409;DHT22;40315;48.620;9.828;2023-10-08T15:35:06;23.10;99.90
54409;DHT22;40315;48.620;9.828;2023-10-08T15:40:04;23.50;99.90
54409;DHT22;40315;48.620;9.828;2023-10-08T15:42:34;23.40;99.90
54409;DHT22;40315;48.620;9.828;2023-10-08T15:45:02;23.40;99.90
54409;DHT22;40315;48.620;9.828;2023-10-08T15:47:30;23.20;99.90
54409;DHT22;40315;48.620;9.828;2023-10-08T15:49:59;23.00;99.90
54409;DHT22;40315;48.620;9.828;2023-10-08T15:52:27;23.10;99.90
54409;DHT22;40315;48.620;9.828;2023-10-08T15:54:55;23.10;99.90
54409;DHT22;40315;48.620;9.828;2023-10-08T15:57:23;23.20;99.90
54409;DHT22;40315;48.620;9.828;2023-10-08T15:59:50;23.10;99.90
54409;DHT22;40315;48.620;9.828;2023-10-08T16:02:18;23.00;99.90
54409;DHT22;40315;48.620;9.828;2023-10-08T16:04:45;22.90;99.90
54409;DHT22;40315;48.620;9.828;2023-10-08T16:07:12;22.80;99.90
54409;DHT22;40315;48.620;9.828;2023-10-08T16:09:40;22.80;99.90
54409;DHT22;40315;48.620;9.828;2023-10-08T16:12:09;22.60;99.90
54409;DHT22;40315;48.620;9.828;2023-10-08T16:14:36;22.30;99.90
54409;DHT22;40315;48.620;9.828;2023-10-08T16:19:35;22.00;99.90
54409;DHT22;40315;48.620;9.828;2023-10-08T16:22:03;21.70;99.90
54409;DHT22;40315;48.620;9.828;2023-10-08T16:24:31;21.50;99.90
54409;DHT22;40315;48.620;9.828;2023-10-08T16:26:58;21.50;99.90
54409;DHT22;40315;48.620;9.828;2023-10-08T16:29:27;21.40;99.90
54409;DHT22;40315;48.620;9.828;2023-10-08T16:31:56;21.20;99.90
54409;DHT22;40315;48.620;9.828;2023-10-08T16:34:23;21.10;99.90
54409;DHT22;40315;48.620;9.828;2023-10-08T16:36:53;21.10;99.90
54409;DHT22;40315;48.620;9.828;2023-10-08T16:39:20;21.10;99.90
54409;DHT22;40315;48.620;9.828;2023-10-08T16:41:51;21.00;99.90
54409;DHT22;40315;48.620;9.828;2023-10-08T16:44:19;20.70;99.90
54409;DHT22;40315;48.620;9.828;2023-10-08T16:46:51;20.70;99.90
54409;DHT22;40315;48.620;9.828;2023-10-08T16:49:19;20.60;99.90
54409;DHT22;40315;48.620;9.828;2023-10-08T16:51:46;20.60;99.90
54409;DHT22;40315;48.620;9.828;2023-10-08T16:54:13;20.50;99.90
54409;DHT22;40315;48.620;9.828;2023-10-08T16:56:41;20.40;99.90
54409;DHT22;40315;48.620;9.828;2023-10-08T16:59:12;20.20;99.90
54409;DHT22;40315;48.620;9.828;2023-10-08T17:01:41;20.00;99.90
54409;DHT22;40315;48.620;9.828;2023-10-08T17:04:09;19.80;99.90
54409;DHT22;40315;48.620;9.828;2023-10-08T17:06:38;19.60;99.90
54409;DHT22;40315;48.620;9.828;2023-10-08T17:09:05;19.50;99.90
54409;DHT22;40315;48.620;9.828;2023-10-08T17:11:40;19.40;99.90
54409;DHT22;40315;48.620;9.828;2023-10-08T17:14:11;19.40;99.90
54409;DHT22;40315;48.620;9.828;2023-10-08T17:16:39;19.30;99.90
54409;DHT22;40315;48.620;9.828;2023-10-08T17:19:08;19.20;99.90
54409;DHT22;40315;48.620;9.828;2023-10-08T17:21:36;19.00;99.90
54409;DHT22;40315;48.620;9.828;2023-10-08T17:24:04;18.80;99.90
54409;DHT22;40315;48.620;9.828;2023-10-08T17:26:32;18.70;99.90
54409;DHT22;40315;48.620;9.828;2023-10-08T17:29:02;18.50;99.90
54409;DHT22;40315;48.620;9.828;2023-10-08T17:31:29;18.40;99.90
54409;DHT22;40315;48.620;9.828;2023-10-08T17:34:03;18.40;99.90
54409;DHT22;40315;48.620;9.828;2023-10-08T17:36:34;18.30;99.90
54409;DHT22;40315;48.620;9.828;2023-10-08T17:39:03;18.20;99.90
54409;DHT22;40315;48.620;9.828;2023-10-08T17:41:34;18.20;99.90
54409;DHT22;40315;48.620;9.828;2023-10-08T17:44:03;18.40;99.90
54409;DHT22;40315;48.620;9.828;2023-10-08T17:46:31;18.40;99.90
54409;DHT22;40315;48.620;9.828;2023-10-08T17:48:58;18.20;99.90
54409;DHT22;40315;48.620;9.828;2023-10-08T17:51:26;18.10;99.90
54409;DHT22;40315;48.620;9.828;2023-10-08T17:53:57;17.90;99.90
54409;DHT22;40315;48.620;9.828;2023-10-08T17:56:27;17.80;99.90
54409;DHT22;40315;48.620;9.828;2023-10-08T18:03:51;17.60;99.90
54409;DHT22;40315;48.620;9.828;2023-10-08T18:08:48;17.80;99.90
54409;DHT22;40315;48.620;9.828;2023-10-08T18:11:19;17.80;99.90
54409;DHT22;40315;48.620;9.828;2023-10-08T18:13:48;17.80;99.90
54409;DHT22;40315;48.620;9.828;2023-10-08T18:16:17;17.60;99.90
54409;DHT22;40315;48.620;9.828;2023-10-08T18:21:15;17.20;99.90
54409;DHT22;40315;48.620;9.828;2023-10-08T18:26:13;16.90;99.90
54409;DHT22;40315;48.620;9.828;2023-10-08T18:31:11;16.80;99.90
54409;DHT22;40315;48.620;9.828;2023-10-08T18:33:39;16.60;99.90
54409;DHT22;40315;48.620;9.828;2023-10-08T18:36:09;16.50;99.90
54409;DHT22;40315;48.620;9.828;2023-10-08T18:38:40;16.40;99.90
54409;DHT22;40315;48.620;9.828;2023-10-08T18:41:08;16.20;99.90
54409;DHT22;40315;48.620;9.828;2023-10-08T18:43:42;16.50;99.90